sensor_id;sensor_type;location;lat;lon;timestamp;P1;durP1;ratioP1;P2;durP2;ratioP2
55063;SDS011;40963;52.168;21.296;2022-08-19T00:00:18;24.50;;;14.13;;
55063;SDS011;40963;52.168;21.296;2022-08-19T00:02:44;22.35;;;14.23;;
55063;SDS011;40963;52.168;21.296;2022-08-19T00:05:12;27.80;;;15.32;;
55063;SDS011;40963;52.168;21.296;2022-08-19T00:07:41;21.65;;;15.00;;
55063;SDS011;40963;52.168;21.296;2022-08-19T00:10:08;27.50;;;14.63;;
55063;SDS011;40963;52.168;21.296;2022-08-19T00:12:35;19.92;;;14.60;;
55063;SDS011;40963;52.168;21.296;2022-08-19T00:15:03;22.50;;;14.25;;
55063;SDS011;40963;52.168;21.296;2022-08-19T00:17:36;22.80;;;14.52;;
55063;SDS011;40963;52.168;21.296;2022-08-19T00:20:03;20.40;;;14.07;;
55063;SDS011;40963;52.168;21.296;2022-08-19T00:22:30;25.20;;;14.30;;
55063;SDS011;40963;52.168;21.296;2022-08-19T00:24:56;22.02;;;14.73;;
55063;SDS011;40963;52.168;21.296;2022-08-19T00:27:22;20.33;;;14.18;;
55063;SDS011;40963;52.168;21.296;2022-08-19T00:29:47;19.20;;;15.13;;
55063;SDS011;40963;52.168;21.296;2022-08-19T00:32:13;17.38;;;14.07;;
55063;SDS011;40963;52.168;21.296;2022-08-19T00:34:39;24.05;;;15.32;;
55063;SDS011;40963;52.168;21.296;2022-08-19T00:37:04;19.27;;;14.52;;
55063;SDS011;40963;52.168;21.296;2022-08-19T00:39:30;19.58;;;15.00;;
55063;SDS011;40963;52.168;21.296;2022-08-19T00:41:56;18.50;;;13.35;;
55063;SDS011;40963;52.168;21.296;2022-08-19T00:44:23;21.05;;;15.52;;
55063;SDS011;40963;52.168;21.296;2022-08-19T00:46:52;23.90;;;15.27;;
55063;SDS011;40963;52.168;21.296;2022-08-19T00:49:21;19.02;;;13.80;;
55063;SDS011;40963;52.168;21.296;2022-08-19T00:51:52;19.10;;;14.80;;
55063;SDS011;40963;52.168;21.296;2022-08-19T00:54:22;22.90;;;15.38;;
55063;SDS011;40963;52.168;21.296;2022-08-19T00:56:48;25.85;;;15.07;;
55063;SDS011;40963;52.168;21.296;2022-08-19T00:59:14;22.25;;;14.50;;
55063;SDS011;40963;52.168;21.296;2022-08-19T01:01:43;22.05;;;14.70;;
55063;SDS011;40963;52.168;21.296;2022-08-19T01:04:10;22.52;;;15.07;;
55063;SDS011;40963;52.168;21.296;2022-08-19T01:06:37;20.55;;;14.48;;
55063;SDS011;40963;52.168;21.296;2022-08-19T01:09:05;22.20;;;14.02;;
55063;SDS011;40963;52.168;21.296;2022-08-19T01:11:34;20.23;;;14.05;;
55063;SDS011;40963;52.168;21.296;2022-08-19T01:14:04;22.60;;;14.70;;
55063;SDS011;40963;52.168;21.296;2022-08-19T01:16:31;22.20;;;15.45;;
55063;SDS011;40963;52.168;21.296;2022-08-19T01:18:58;22.80;;;14.65;;
55063;SDS011;40963;52.168;21.296;2022-08-19T01:21:31;22.30;;;14.73;;
55063;SDS011;40963;52.168;21.296;2022-08-19T01:24:07;21.10;;;14.52;;
55063;SDS011;40963;52.168;21.296;2022-08-19T01:26:37;22.33;;;14.52;;
55063;SDS011;40963;52.168;21.296;2022-08-19T01:29:09;26.02;;;15.52;;
55063;SDS011;40963;52.168;21.296;2022-08-19T01:31:35;24.08;;;15.20;;
55063;SDS011;40963;52.168;21.296;2022-08-19T01:34:04;20.20;;;14.85;;
55063;SDS011;40963;52.168;21.296;2022-08-19T01:36:33;24.25;;;14.85;;
55063;SDS011;40963;52.168;21.296;2022-08-19T01:39:04;21.23;;;13.95;;
55063;SDS011;40963;52.168;21.296;2022-08-19T01:41:34;20.90;;;15.57;;
55063;SDS011;40963;52.168;21.296;2022-08-19T01:43:59;20.15;;;14.15;;
55063;SDS011;40963;52.168;21.296;2022-08-19T01:46:28;21.48;;;14.65;;
55063;SDS011;40963;52.168;21.296;2022-08-19T01:48:55;19.58;;;14.75;;
55063;SDS011;40963;52.168;21.296;2022-08-19T01:51:21;19.48;;;14.70;;
55063;SDS011;40963;52.168;21.296;2022-08-19T01:53:47;24.25;;;15.15;;
55063;SDS011;40963;52.168;21.296;2022-08-19T01:56:14;19.10;;;14.35;;
55063;SDS011;40963;52.168;21.296;2022-08-19T01:58:51;20.17;;;14.93;;
55063;SDS011;40963;52.168;21.296;2022-08-19T02:01:22;23.73;;;14.27;;
55063;SDS011;40963;52.168;21.296;2022-08-19T02:03:48;25.70;;;15.38;;
55063;SDS011;40963;52.168;21.296;2022-08-19T02:06:14;20.98;;;14.52;;
55063;SDS011;40963;52.168;21.296;2022-08-19T02:08:42;25.05;;;15.18;;
55063;SDS011;40963;52.168;21.296;2022-08-19T02:11:17;22.48;;;14.60;;
55063;SDS011;40963;52.168;21.296;2022-08-19T02:13:48;25.25;;;15.90;;
55063;SDS011;40963;52.168;21.296;2022-08-19T02:16:15;25.08;;;15.10;;
55063;SDS011;40963;52.168;21.296;2022-08-19T02:18:42;24.02;;;14.60;;
55063;SDS011;40963;52.168;21.296;2022-08-19T02:21:07;26.15;;;14.85;;
55063;SDS011;40963;52.168;21.296;2022-08-19T02:23:33;24.55;;;14.25;;
55063;SDS011;40963;52.168;21.296;2022-08-19T02:26:01;27.90;;;15.05;;
55063;SDS011;40963;52.168;21.296;2022-08-19T02:28:27;22.08;;;14.95;;
55063;SDS011;40963;52.168;21.296;2022-08-19T02:30:53;18.58;;;15.52;;
55063;SDS011;40963;52.168;21.296;2022-08-19T02:33:19;22.92;;;14.75;;
55063;SDS011;40963;52.168;21.296;2022-08-19T02:35:45;21.25;;;14.52;;
55063;SDS011;40963;52.168;21.296;2022-08-19T02:38:11;20.35;;;14.15;;
55063;SDS011;40963;52.168;21.296;2022-08-19T02:40:51;18.75;;;14.43;;
55063;SDS011;40963;52.168;21.296;2022-08-19T02:43:19;18.80;;;14.63;;
55063;SDS011;40963;52.168;21.296;2022-08-19T02:45:45;25.15;;;15.02;;
55063;SDS011;40963;52.168;21.296;2022-08-19T02:48:13;19.98;;;15.32;;
55063;SDS011;40963;52.168;21.296;2022-08-19T02:50:43;20.42;;;14.13;;
55063;SDS011;40963;52.168;21.296;2022-08-19T02:53:10;21.20;;;14.50;;
55063;SDS011;40963;52.168;21.296;2022-08-19T02:55:42;17.00;;;14.93;;
55063;SDS011;40963;52.168;21.296;2022-08-19T02:58:10;23.67;;;14.45;;
55063;SDS011;40963;52.168;21.296;2022-08-19T03:00:40;21.85;;;15.27;;
55063;SDS011;40963;52.168;21.296;2022-08-19T03:03:10;18.52;;;14.40;;
55063;SDS011;40963;52.168;21.296;2022-08-19T03:05:36;23.90;;;16.05;;
55063;SDS011;40963;52.168;21.296;2022-08-19T03:08:02;21.58;;;14.82;;
55063;SDS011;40963;52.168;21.296;2022-08-19T03:10:30;19.83;;;14.05;;
55063;SDS011;40963;52.168;21.296;2022-08-19T03:12:56;21.70;;;14.68;;
55063;SDS011;40963;52.168;21.296;2022-08-19T03:15:21;25.15;;;15.50;;
55063;SDS011;40963;52.168;21.296;2022-08-19T03:17:47;18.60;;;14.07;;
55063;SDS011;40963;52.168;21.296;2022-08-19T03:20:13;21.88;;;15.20;;
55063;SDS011;40963;52.168;21.296;2022-08-19T03:22:38;21.75;;;14.98;;
55063;SDS011;40963;52.168;21.296;2022-08-19T03:25:04;25.15;;;14.93;;
55063;SDS011;40963;52.168;21.296;2022-08-19T03:27:30;20.48;;;14.80;;
55063;SDS011;40963;52.168;21.296;2022-08-19T03:29:56;21.17;;;14.68;;
55063;SDS011;40963;52.168;21.296;2022-08-19T03:32:22;21.48;;;15.13;;
55063;SDS011;40963;52.168;21.296;2022-08-19T03:34:47;18.60;;;14.77;;
55063;SDS011;40963;52.168;21.296;2022-08-19T03:37:14;21.48;;;14.63;;
55063;SDS011;40963;52.168;21.296;2022-08-19T03:39:40;21.83;;;15.05;;
55063;SDS011;40963;52.168;21.296;2022-08-19T03:42:07;17.80;;;14.23;;
55063;SDS011;40963;52.168;21.296;2022-08-19T03:44:33;29.17;;;14.73;;
55063;SDS011;40963;52.168;21.296;2022-08-19T03:47:01;23.27;;;14.45;;
55063;SDS011;40963;52.168;21.296;2022-08-19T03:49:28;22.23;;;14.50;;
55063;SDS011;40963;52.168;21.296;2022-08-19T03:51:57;21.30;;;15.35;;
55063;SDS011;40963;52.168;21.296;2022-08-19T03:54:25;21.60;;;14.85;;
55063;SDS011;40963;52.168;21.296;2022-08-19T03:56:52;23.80;;;15.35;;
55063;SDS011;40963;52.168;21.296;2022-08-19T03:59:30;18.35;;;14.98;;
55063;SDS011;40963;52.168;21.296;2022-08-19T04:02:00;20.90;;;14.93;;
55063;SDS011;40963;52.168;21.296;2022-08-19T04:04:28;20.05;;;14.63;;
55063;SDS011;40963;52.168;21.296;2022-08-19T04:06:54;18.05;;;14.00;;
55063;SDS011;40963;52.168;21.296;2022-08-19T04:09:20;23.85;;;15.30;;
55063;SDS011;40963;52.168;21.296;2022-08-19T04:11:47;25.65;;;14.20;;
55063;SDS011;40963;52.168;21.296;2022-08-19T04:14:16;21.02;;;14.65;;
55063;SDS011;40963;52.168;21.296;2022-08-19T04:16:47;18.50;;;14.60;;
55063;SDS011;40963;52.168;21.296;2022-08-19T04:19:13;24.20;;;14.75;;
55063;SDS011;40963;52.168;21.296;2022-08-19T04:21:40;20.77;;;14.80;;
55063;SDS011;40963;52.168;21.296;2022-08-19T04:24:08;27.80;;;14.30;;
55063;SDS011;40963;52.168;21.296;2022-08-19T04:26:35;19.75;;;14.75;;
55063;SDS011;40963;52.168;21.296;2022-08-19T04:29:04;19.30;;;14.73;;
55063;SDS011;40963;52.168;21.296;2022-08-19T04:31:32;18.02;;;14.05;;
55063;SDS011;40963;52.168;21.296;2022-08-19T04:34:03;20.60;;;13.93;;
55063;SDS011;40963;52.168;21.296;2022-08-19T04:36:31;17.63;;;13.18;;
55063;SDS011;40963;52.168;21.296;2022-08-19T04:38:59;19.15;;;13.93;;
55063;SDS011;40963;52.168;21.296;2022-08-19T04:41:29;16.52;;;12.48;;
55063;SDS011;40963;52.168;21.296;2022-08-19T04:44:13;22.00;;;13.80;;
55063;SDS011;40963;52.168;21.296;2022-08-19T04:46:39;18.48;;;13.50;;
55063;SDS011;40963;52.168;21.296;2022-08-19T04:49:05;27.08;;;14.77;;
55063;SDS011;40963;52.168;21.296;2022-08-19T04:51:32;23.70;;;14.50;;
55063;SDS011;40963;52.168;21.296;2022-08-19T04:53:58;17.73;;;12.95;;
55063;SDS011;40963;52.168;21.296;2022-08-19T04:56:25;28.90;;;13.55;;
55063;SDS011;40963;52.168;21.296;2022-08-19T04:58:52;18.83;;;14.18;;
55063;SDS011;40963;52.168;21.296;2022-08-19T05:01:21;18.80;;;13.98;;
55063;SDS011;40963;52.168;21.296;2022-08-19T05:03:53;20.08;;;14.07;;
55063;SDS011;40963;52.168;21.296;2022-08-19T05:06:20;21.95;;;14.02;;
55063;SDS011;40963;52.168;21.296;2022-08-19T05:08:47;18.48;;;12.98;;
55063;SDS011;40963;52.168;21.296;2022-08-19T05:11:18;19.77;;;13.15;;
55063;SDS011;40963;52.168;21.296;2022-08-19T05:13:49;23.02;;;12.85;;
55063;SDS011;40963;52.168;21.296;2022-08-19T05:16:16;23.13;;;13.07;;
55063;SDS011;40963;52.168;21.296;2022-08-19T05:18:44;25.75;;;12.85;;
55063;SDS011;40963;52.168;21.296;2022-08-19T05:21:28;19.38;;;11.85;;
55063;SDS011;40963;52.168;21.296;2022-08-19T05:24:14;21.13;;;12.13;;
55063;SDS011;40963;52.168;21.296;2022-08-19T05:26:42;22.17;;;12.10;;
55063;SDS011;40963;52.168;21.296;2022-08-19T05:29:13;22.30;;;11.48;;
55063;SDS011;40963;52.168;21.296;2022-08-19T05:31:40;17.35;;;11.73;;
55063;SDS011;40963;52.168;21.296;2022-08-19T05:34:06;18.63;;;12.20;;
55063;SDS011;40963;52.168;21.296;2022-08-19T05:36:34;22.58;;;11.70;;
55063;SDS011;40963;52.168;21.296;2022-08-19T05:39:04;17.92;;;11.65;;
55063;SDS011;40963;52.168;21.296;2022-08-19T05:41:31;18.20;;;11.57;;
55063;SDS011;40963;52.168;21.296;2022-08-19T05:44:01;21.90;;;11.75;;
55063;SDS011;40963;52.168;21.296;2022-08-19T05:46:30;20.10;;;11.65;;
55063;SDS011;40963;52.168;21.296;2022-08-19T05:48:56;16.70;;;11.65;;
55063;SDS011;40963;52.168;21.296;2022-08-19T05:51:22;21.50;;;11.90;;
55063;SDS011;40963;52.168;21.296;2022-08-19T05:53:50;22.10;;;11.32;;
55063;SDS011;40963;52.168;21.296;2022-08-19T05:56:16;23.55;;;11.32;;
55063;SDS011;40963;52.168;21.296;2022-08-19T05:58:43;17.42;;;11.07;;
55063;SDS011;40963;52.168;21.296;2022-08-19T06:01:11;16.98;;;10.95;;
55063;SDS011;40963;52.168;21.296;2022-08-19T06:03:38;23.88;;;11.60;;
55063;SDS011;40963;52.168;21.296;2022-08-19T06:06:05;21.30;;;11.55;;
55063;SDS011;40963;52.168;21.296;2022-08-19T06:08:33;16.92;;;10.80;;
55063;SDS011;40963;52.168;21.296;2022-08-19T06:11:14;19.85;;;11.13;;
55063;SDS011;40963;52.168;21.296;2022-08-19T06:13:50;20.10;;;11.27;;
55063;SDS011;40963;52.168;21.296;2022-08-19T06:16:18;17.33;;;11.00;;
55063;SDS011;40963;52.168;21.296;2022-08-19T06:18:47;17.23;;;10.48;;
55063;SDS011;40963;52.168;21.296;2022-08-19T06:21:17;17.05;;;11.02;;
55063;SDS011;40963;52.168;21.296;2022-08-19T06:23:44;18.17;;;11.32;;
55063;SDS011;40963;52.168;21.296;2022-08-19T06:26:12;16.08;;;10.68;;
55063;SDS011;40963;52.168;21.296;2022-08-19T06:28:39;15.43;;;10.02;;
55063;SDS011;40963;52.168;21.296;2022-08-19T06:31:08;21.17;;;11.77;;
55063;SDS011;40963;52.168;21.296;2022-08-19T06:33:34;20.02;;;10.82;;
55063;SDS011;40963;52.168;21.296;2022-08-19T06:36:00;14.55;;;10.57;;
55063;SDS011;40963;52.168;21.296;2022-08-19T06:38:26;20.05;;;11.27;;
55063;SDS011;40963;52.168;21.296;2022-08-19T06:40:59;20.98;;;11.05;;
55063;SDS011;40963;52.168;21.296;2022-08-19T06:43:29;20.17;;;11.27;;
55063;SDS011;40963;52.168;21.296;2022-08-19T06:45:55;18.50;;;11.50;;
55063;SDS011;40963;52.168;21.296;2022-08-19T06:48:20;20.33;;;11.20;;
55063;SDS011;40963;52.168;21.296;2022-08-19T06:50:46;23.30;;;11.60;;
55063;SDS011;40963;52.168;21.296;2022-08-19T06:53:13;16.08;;;11.38;;
55063;SDS011;40963;52.168;21.296;2022-08-19T06:55:39;17.75;;;11.57;;
55063;SDS011;40963;52.168;21.296;2022-08-19T06:58:05;21.77;;;12.10;;
55063;SDS011;40963;52.168;21.296;2022-08-19T07:00:31;15.68;;;11.85;;
55063;SDS011;40963;52.168;21.296;2022-08-19T07:02:57;15.07;;;11.00;;
55063;SDS011;40963;52.168;21.296;2022-08-19T07:05:23;16.52;;;11.55;;
55063;SDS011;40963;52.168;21.296;2022-08-19T07:07:49;17.35;;;10.93;;
55063;SDS011;40963;52.168;21.296;2022-08-19T07:10:15;22.73;;;11.40;;
55063;SDS011;40963;52.168;21.296;2022-08-19T07:12:40;18.48;;;11.32;;
55063;SDS011;40963;52.168;21.296;2022-08-19T07:15:06;18.73;;;11.05;;
55063;SDS011;40963;52.168;21.296;2022-08-19T07:17:34;26.23;;;11.02;;
55063;SDS011;40963;52.168;21.296;2022-08-19T07:20:04;18.98;;;11.07;;
55063;SDS011;40963;52.168;21.296;2022-08-19T07:22:34;19.33;;;11.48;;
55063;SDS011;40963;52.168;21.296;2022-08-19T07:25:00;17.95;;;10.52;;
55063;SDS011;40963;52.168;21.296;2022-08-19T07:27:28;12.55;;;10.68;;
55063;SDS011;40963;52.168;21.296;2022-08-19T07:29:54;17.33;;;11.13;;
55063;SDS011;40963;52.168;21.296;2022-08-19T07:32:20;18.55;;;11.07;;
55063;SDS011;40963;52.168;21.296;2022-08-19T07:34:45;13.85;;;10.90;;
55063;SDS011;40963;52.168;21.296;2022-08-19T07:37:11;19.25;;;10.30;;
55063;SDS011;40963;52.168;21.296;2022-08-19T07:39:37;15.90;;;10.43;;
55063;SDS011;40963;52.168;21.296;2022-08-19T07:42:06;18.42;;;10.00;;
55063;SDS011;40963;52.168;21.296;2022-08-19T07:44:33;17.55;;;9.52;;
55063;SDS011;40963;52.168;21.296;2022-08-19T07:46:59;21.20;;;9.63;;
55063;SDS011;40963;52.168;21.296;2022-08-19T07:49:26;11.68;;;9.60;;
55063;SDS011;40963;52.168;21.296;2022-08-19T07:51:54;18.35;;;9.75;;
55063;SDS011;40963;52.168;21.296;2022-08-19T07:54:26;11.73;;;8.77;;
55063;SDS011;40963;52.168;21.296;2022-08-19T07:56:55;17.35;;;9.00;;
55063;SDS011;40963;52.168;21.296;2022-08-19T07:59:22;15.35;;;9.10;;
55063;SDS011;40963;52.168;21.296;2022-08-19T08:01:48;13.23;;;9.32;;
55063;SDS011;40963;52.168;21.296;2022-08-19T08:04:15;16.60;;;9.52;;
55063;SDS011;40963;52.168;21.296;2022-08-19T08:07:00;13.50;;;9.07;;
55063;SDS011;40963;52.168;21.296;2022-08-19T08:09:44;14.43;;;9.15;;
55063;SDS011;40963;52.168;21.296;2022-08-19T08:12:13;12.68;;;8.95;;
55063;SDS011;40963;52.168;21.296;2022-08-19T08:14:43;25.35;;;9.63;;
55063;SDS011;40963;52.168;21.296;2022-08-19T08:17:12;17.90;;;8.95;;
55063;SDS011;40963;52.168;21.296;2022-08-19T08:19:40;18.58;;;9.27;;
55063;SDS011;40963;52.168;21.296;2022-08-19T08:22:07;15.20;;;9.45;;
55063;SDS011;40963;52.168;21.296;2022-08-19T08:24:54;24.98;;;9.23;;
55063;SDS011;40963;52.168;21.296;2022-08-19T08:27:23;15.13;;;8.32;;
55063;SDS011;40963;52.168;21.296;2022-08-19T08:29:49;12.05;;;8.38;;
55063;SDS011;40963;52.168;21.296;2022-08-19T08:32:15;15.40;;;8.00;;
55063;SDS011;40963;52.168;21.296;2022-08-19T08:34:41;12.02;;;8.77;;
55063;SDS011;40963;52.168;21.296;2022-08-19T08:37:07;19.98;;;9.65;;
55063;SDS011;40963;52.168;21.296;2022-08-19T08:39:32;17.42;;;9.05;;
55063;SDS011;40963;52.168;21.296;2022-08-19T08:42:06;15.50;;;8.18;;
55063;SDS011;40963;52.168;21.296;2022-08-19T08:44:54;17.05;;;8.20;;
55063;SDS011;40963;52.168;21.296;2022-08-19T08:47:25;13.30;;;8.70;;
55063;SDS011;40963;52.168;21.296;2022-08-19T08:52:28;16.67;;;8.23;;
55063;SDS011;40963;52.168;21.296;2022-08-19T08:55:07;22.10;;;8.38;;
55063;SDS011;40963;52.168;21.296;2022-08-19T08:57:38;18.42;;;8.35;;
55063;SDS011;40963;52.168;21.296;2022-08-19T09:00:26;14.80;;;7.88;;
55063;SDS011;40963;52.168;21.296;2022-08-19T09:02:54;9.43;;;7.47;;
55063;SDS011;40963;52.168;21.296;2022-08-19T09:05:22;19.08;;;8.23;;
55063;SDS011;40963;52.168;21.296;2022-08-19T09:10:38;14.50;;;8.20;;
55063;SDS011;40963;52.168;21.296;2022-08-19T09:18:43;13.48;;;8.30;;
55063;SDS011;40963;52.168;21.296;2022-08-19T09:21:20;18.38;;;7.80;;
55063;SDS011;40963;52.168;21.296;2022-08-19T09:23:47;11.15;;;7.68;;
55063;SDS011;40963;52.168;21.296;2022-08-19T09:26:14;16.10;;;6.93;;
55063;SDS011;40963;52.168;21.296;2022-08-19T09:28:43;10.55;;;7.45;;
55063;SDS011;40963;52.168;21.296;2022-08-19T09:31:10;14.65;;;7.43;;
55063;SDS011;40963;52.168;21.296;2022-08-19T09:33:37;17.42;;;7.10;;
55063;SDS011;40963;52.168;21.296;2022-08-19T09:36:08;17.20;;;7.70;;
55063;SDS011;40963;52.168;21.296;2022-08-19T09:38:35;19.65;;;6.80;;
55063;SDS011;40963;52.168;21.296;2022-08-19T09:41:05;15.00;;;6.60;;
55063;SDS011;40963;52.168;21.296;2022-08-19T09:43:32;13.50;;;6.60;;
55063;SDS011;40963;52.168;21.296;2022-08-19T09:46:01;17.65;;;6.43;;
55063;SDS011;40963;52.168;21.296;2022-08-19T09:48:28;15.20;;;7.95;;
55063;SDS011;40963;52.168;21.296;2022-08-19T09:50:53;12.82;;;7.38;;
55063;SDS011;40963;52.168;21.296;2022-08-19T09:53:19;17.13;;;7.22;;
55063;SDS011;40963;52.168;21.296;2022-08-19T09:55:47;22.25;;;7.22;;
55063;SDS011;40963;52.168;21.296;2022-08-19T09:58:13;10.20;;;6.40;;
55063;SDS011;40963;52.168;21.296;2022-08-19T10:00:38;12.55;;;7.00;;
55063;SDS011;40963;52.168;21.296;2022-08-19T10:03:04;19.77;;;6.32;;
55063;SDS011;40963;52.168;21.296;2022-08-19T10:05:30;13.63;;;6.45;;
55063;SDS011;40963;52.168;21.296;2022-08-19T10:08:14;8.52;;;6.15;;
55063;SDS011;40963;52.168;21.296;2022-08-19T10:10:51;15.57;;;6.70;;
55063;SDS011;40963;52.168;21.296;2022-08-19T10:13:18;15.05;;;6.07;;
55063;SDS011;40963;52.168;21.296;2022-08-19T10:15:47;17.00;;;6.70;;
55063;SDS011;40963;52.168;21.296;2022-08-19T10:18:15;11.52;;;5.63;;
55063;SDS011;40963;52.168;21.296;2022-08-19T10:20:42;9.57;;;5.60;;
55063;SDS011;40963;52.168;21.296;2022-08-19T10:23:10;22.77;;;5.88;;
55063;SDS011;40963;52.168;21.296;2022-08-19T10:25:37;17.65;;;5.80;;
55063;SDS011;40963;52.168;21.296;2022-08-19T10:28:03;15.45;;;5.80;;
55063;SDS011;40963;52.168;21.296;2022-08-19T10:30:31;10.68;;;5.55;;
55063;SDS011;40963;52.168;21.296;2022-08-19T10:32:57;12.00;;;5.72;;
55063;SDS011;40963;52.168;21.296;2022-08-19T10:35:23;10.40;;;6.13;;
55063;SDS011;40963;52.168;21.296;2022-08-19T10:37:51;8.77;;;5.35;;
55063;SDS011;40963;52.168;21.296;2022-08-19T10:40:17;13.10;;;5.78;;
55063;SDS011;40963;52.168;21.296;2022-08-19T10:42:42;9.05;;;5.45;;
55063;SDS011;40963;52.168;21.296;2022-08-19T10:45:09;12.45;;;5.63;;
55063;SDS011;40963;52.168;21.296;2022-08-19T10:47:35;12.45;;;5.65;;
55063;SDS011;40963;52.168;21.296;2022-08-19T10:50:02;18.98;;;5.43;;
55063;SDS011;40963;52.168;21.296;2022-08-19T10:52:48;10.00;;;4.97;;
55063;SDS011;40963;52.168;21.296;2022-08-19T10:55:14;10.25;;;5.20;;
55063;SDS011;40963;52.168;21.296;2022-08-19T10:58:00;15.68;;;5.85;;
55063;SDS011;40963;52.168;21.296;2022-08-19T11:00:26;8.90;;;5.30;;
55063;SDS011;40963;52.168;21.296;2022-08-19T11:02:51;15.15;;;5.28;;
55063;SDS011;40963;52.168;21.296;2022-08-19T11:05:18;7.53;;;4.72;;
55063;SDS011;40963;52.168;21.296;2022-08-19T11:07:44;11.93;;;5.28;;
55063;SDS011;40963;52.168;21.296;2022-08-19T11:10:12;11.55;;;4.93;;
55063;SDS011;40963;52.168;21.296;2022-08-19T11:12:39;13.23;;;5.57;;
55063;SDS011;40963;52.168;21.296;2022-08-19T11:15:06;13.57;;;5.10;;
55063;SDS011;40963;52.168;21.296;2022-08-19T11:17:35;15.70;;;6.63;;
55063;SDS011;40963;52.168;21.296;2022-08-19T11:20:05;15.80;;;6.55;;
55063;SDS011;40963;52.168;21.296;2022-08-19T11:22:32;18.98;;;7.05;;
55063;SDS011;40963;52.168;21.296;2022-08-19T11:24:58;15.88;;;6.05;;
55063;SDS011;40963;52.168;21.296;2022-08-19T11:27:23;19.08;;;5.70;;
55063;SDS011;40963;52.168;21.296;2022-08-19T11:29:49;16.00;;;5.43;;
55063;SDS011;40963;52.168;21.296;2022-08-19T11:32:15;15.88;;;5.90;;
55063;SDS011;40963;52.168;21.296;2022-08-19T11:34:41;16.17;;;5.28;;
55063;SDS011;40963;52.168;21.296;2022-08-19T11:37:07;8.70;;;5.50;;
55063;SDS011;40963;52.168;21.296;2022-08-19T11:39:34;9.65;;;5.10;;
55063;SDS011;40963;52.168;21.296;2022-08-19T11:42:02;12.98;;;5.03;;
55063;SDS011;40963;52.168;21.296;2022-08-19T11:44:48;18.35;;;4.60;;
55063;SDS011;40963;52.168;21.296;2022-08-19T11:47:14;13.68;;;5.05;;
55063;SDS011;40963;52.168;21.296;2022-08-19T11:49:40;15.55;;;5.43;;
55063;SDS011;40963;52.168;21.296;2022-08-19T11:52:07;23.63;;;5.25;;
55063;SDS011;40963;52.168;21.296;2022-08-19T11:54:33;11.88;;;4.80;;
55063;SDS011;40963;52.168;21.296;2022-08-19T11:56:58;8.13;;;5.07;;
55063;SDS011;40963;52.168;21.296;2022-08-19T11:59:26;8.23;;;4.57;;
55063;SDS011;40963;52.168;21.296;2022-08-19T12:01:52;18.05;;;4.85;;
55063;SDS011;40963;52.168;21.296;2022-08-19T12:04:17;8.02;;;5.00;;
55063;SDS011;40963;52.168;21.296;2022-08-19T12:06:43;17.05;;;4.82;;
55063;SDS011;40963;52.168;21.296;2022-08-19T12:09:10;10.23;;;5.53;;
55063;SDS011;40963;52.168;21.296;2022-08-19T12:11:36;23.67;;;6.18;;
55063;SDS011;40963;52.168;21.296;2022-08-19T12:14:03;15.35;;;5.43;;
55063;SDS011;40963;52.168;21.296;2022-08-19T12:16:29;13.07;;;5.05;;
55063;SDS011;40963;52.168;21.296;2022-08-19T12:18:57;12.02;;;4.80;;
55063;SDS011;40963;52.168;21.296;2022-08-19T12:21:28;14.43;;;4.60;;
55063;SDS011;40963;52.168;21.296;2022-08-19T12:23:56;17.08;;;5.07;;
55063;SDS011;40963;52.168;21.296;2022-08-19T12:26:23;20.08;;;5.13;;
55063;SDS011;40963;52.168;21.296;2022-08-19T12:28:50;21.10;;;4.60;;
55063;SDS011;40963;52.168;21.296;2022-08-19T12:31:16;9.85;;;4.30;;
55063;SDS011;40963;52.168;21.296;2022-08-19T12:33:43;13.60;;;4.63;;
55063;SDS011;40963;52.168;21.296;2022-08-19T12:36:10;12.07;;;4.10;;
55063;SDS011;40963;52.168;21.296;2022-08-19T12:38:36;9.18;;;4.40;;
55063;SDS011;40963;52.168;21.296;2022-08-19T12:41:03;25.70;;;5.20;;
55063;SDS011;40963;52.168;21.296;2022-08-19T12:43:31;23.83;;;5.13;;
55063;SDS011;40963;52.168;21.296;2022-08-19T12:46:00;10.90;;;4.45;;
55063;SDS011;40963;52.168;21.296;2022-08-19T12:48:26;22.65;;;5.03;;
55063;SDS011;40963;52.168;21.296;2022-08-19T12:50:52;17.88;;;5.05;;
55063;SDS011;40963;52.168;21.296;2022-08-19T12:53:19;12.13;;;4.50;;
55063;SDS011;40963;52.168;21.296;2022-08-19T12:55:44;15.00;;;4.65;;
55063;SDS011;40963;52.168;21.296;2022-08-19T12:58:10;15.05;;;4.78;;
55063;SDS011;40963;52.168;21.296;2022-08-19T13:00:37;15.00;;;4.22;;
55063;SDS011;40963;52.168;21.296;2022-08-19T13:03:03;13.82;;;4.25;;
55063;SDS011;40963;52.168;21.296;2022-08-19T13:05:30;11.50;;;4.20;;
55063;SDS011;40963;52.168;21.296;2022-08-19T13:07:58;9.48;;;4.30;;
55063;SDS011;40963;52.168;21.296;2022-08-19T13:10:26;10.65;;;4.40;;
55063;SDS011;40963;52.168;21.296;2022-08-19T13:12:54;10.43;;;4.85;;
55063;SDS011;40963;52.168;21.296;2022-08-19T13:15:21;9.07;;;4.32;;
55063;SDS011;40963;52.168;21.296;2022-08-19T13:17:49;9.68;;;4.40;;
55063;SDS011;40963;52.168;21.296;2022-08-19T13:20:18;10.30;;;4.13;;
55063;SDS011;40963;52.168;21.296;2022-08-19T13:22:45;8.98;;;4.40;;
55063;SDS011;40963;52.168;21.296;2022-08-19T13:25:13;17.02;;;4.75;;
55063;SDS011;40963;52.168;21.296;2022-08-19T13:27:41;19.20;;;4.90;;
55063;SDS011;40963;52.168;21.296;2022-08-19T13:30:07;12.77;;;4.18;;
55063;SDS011;40963;52.168;21.296;2022-08-19T13:32:53;15.90;;;4.78;;
55063;SDS011;40963;52.168;21.296;2022-08-19T13:35:53;14.25;;;4.45;;
55063;SDS011;40963;52.168;21.296;2022-08-19T13:38:23;8.32;;;4.20;;
55063;SDS011;40963;52.168;21.296;2022-08-19T13:40:49;15.98;;;4.43;;
55063;SDS011;40963;52.168;21.296;2022-08-19T13:43:17;18.20;;;4.38;;
55063;SDS011;40963;52.168;21.296;2022-08-19T13:45:46;10.50;;;4.20;;
55063;SDS011;40963;52.168;21.296;2022-08-19T13:48:12;9.70;;;4.45;;
55063;SDS011;40963;52.168;21.296;2022-08-19T13:50:39;15.38;;;4.78;;
55063;SDS011;40963;52.168;21.296;2022-08-19T13:53:07;15.25;;;4.03;;
55063;SDS011;40963;52.168;21.296;2022-08-19T13:55:34;8.98;;;4.88;;
55063;SDS011;40963;52.168;21.296;2022-08-19T13:58:02;12.40;;;4.38;;
55063;SDS011;40963;52.168;21.296;2022-08-19T14:00:29;12.60;;;4.50;;
55063;SDS011;40963;52.168;21.296;2022-08-19T14:02:58;13.02;;;4.63;;
55063;SDS011;40963;52.168;21.296;2022-08-19T14:05:24;7.45;;;4.00;;
55063;SDS011;40963;52.168;21.296;2022-08-19T14:07:51;11.27;;;4.22;;
55063;SDS011;40963;52.168;21.296;2022-08-19T14:10:18;11.82;;;4.32;;
55063;SDS011;40963;52.168;21.296;2022-08-19T14:12:45;9.25;;;4.10;;
55063;SDS011;40963;52.168;21.296;2022-08-19T14:15:11;12.73;;;4.22;;
55063;SDS011;40963;52.168;21.296;2022-08-19T14:17:38;14.70;;;4.40;;
55063;SDS011;40963;52.168;21.296;2022-08-19T14:20:08;12.85;;;4.43;;
55063;SDS011;40963;52.168;21.296;2022-08-19T14:22:36;10.60;;;4.50;;
55063;SDS011;40963;52.168;21.296;2022-08-19T14:25:04;14.73;;;4.63;;
55063;SDS011;40963;52.168;21.296;2022-08-19T14:27:33;12.48;;;4.35;;
55063;SDS011;40963;52.168;21.296;2022-08-19T14:30:06;9.93;;;4.30;;
55063;SDS011;40963;52.168;21.296;2022-08-19T14:32:34;8.20;;;3.80;;